DLH2GY EGSS-LZIB
Flight info
| Callsign | DLH2GY |
|---|---|
| Flight time | N/A |
| Altitude | 37000 |
| Route | CLN P44 RATLO M197 REDFA L620 TACHA DCT GISEB DCT BADGO DCT SWALM DCT VELIS DCT OKG DCT ODNEM/N0346F130 A4 BERVA |
| Aircraft | A321/M-SDE3FGHIRWY/LB1 |
Departure
| Time | N/A |
|---|---|
| Airport | London Stansted Airport (EGSS) |
Arrival
| Time | 2026-05-01 07:41 |
|---|---|
| Airport | M. R. Štefánik Airport (LZIB) |
| Time | Latitude | Longitude | Altitude | Speed | Heading |
|---|---|---|---|---|---|
| 2026-05-01 07:23 | 48.39646 | 17.71511 | 11220 ft | 340 kts | 154° |
| 2026-05-01 07:23 | 48.35415 | 17.73877 | 10894 ft | 313 kts | 155° |
| 2026-05-01 07:24 | 48.33388 | 17.74947 | 10725 ft | 302 kts | 156° |
| 2026-05-01 07:24 | 48.31410 | 17.75968 | 10320 ft | 301 kts | 156° |
| 2026-05-01 07:24 | 48.29424 | 17.76794 | 10031 ft | 299 kts | 168° |
| 2026-05-01 07:24 | 48.27349 | 17.76787 | 9738 ft | 298 kts | 186° |
| 2026-05-01 07:25 | 48.25378 | 17.75866 | 9423 ft | 296 kts | 205° |
| 2026-05-01 07:25 | 48.23684 | 17.74133 | 9070 ft | 294 kts | 223° |
| 2026-05-01 07:25 | 48.22276 | 17.71995 | 8776 ft | 292 kts | 226° |
| 2026-05-01 07:25 | 48.20804 | 17.69829 | 8602 ft | 298 kts | 224° |
| 2026-05-01 07:26 | 48.19547 | 17.67357 | 8391 ft | 301 kts | 249° |
| 2026-05-01 07:26 | 48.19144 | 17.64322 | 8206 ft | 295 kts | 276° |
| 2026-05-01 07:26 | 48.19606 | 17.61430 | 8015 ft | 286 kts | 300° |
| 2026-05-01 07:26 | 48.20731 | 17.59043 | 7829 ft | 277 kts | 319° |
| 2026-05-01 07:27 | 48.22080 | 17.56982 | 7628 ft | 277 kts | 319° |
| 2026-05-01 07:27 | 48.23390 | 17.54856 | 7439 ft | 278 kts | 312° |
| 2026-05-01 07:27 | 48.24119 | 17.52195 | 7263 ft | 288 kts | 279° |
| 2026-05-01 07:27 | 48.23835 | 17.49209 | 7107 ft | 293 kts | 249° |
| 2026-05-01 07:28 | 48.22656 | 17.46723 | 6949 ft | 294 kts | 224° |
| 2026-05-01 07:28 | 48.21180 | 17.44613 | 6833 ft | 291 kts | 224° |
| 2026-05-01 07:28 | 48.19668 | 17.42677 | 6674 ft | 289 kts | 208° |
| 2026-05-01 07:28 | 48.17785 | 17.41776 | 6536 ft | 282 kts | 181° |
| 2026-05-01 07:29 | 48.15873 | 17.42109 | 6403 ft | 274 kts | 157° |
| 2026-05-01 07:29 | 48.14228 | 17.43512 | 6294 ft | 271 kts | 134° |
| 2026-05-01 07:29 | 48.12900 | 17.45518 | 6138 ft | 273 kts | 130° |
| 2026-05-01 07:29 | 48.11579 | 17.47548 | 6007 ft | 277 kts | 130° |
| 2026-05-01 07:30 | 48.10234 | 17.49623 | 5817 ft | 278 kts | 130° |
| 2026-05-01 07:30 | 48.08886 | 17.51708 | 5663 ft | 277 kts | 130° |
| 2026-05-01 07:30 | 48.07554 | 17.53771 | 5520 ft | 273 kts | 130° |
| 2026-05-01 07:30 | 48.06243 | 17.55799 | 5373 ft | 267 kts | 130° |
| 2026-05-01 07:31 | 48.04969 | 17.57765 | 5255 ft | 267 kts | 130° |
| 2026-05-01 07:31 | 48.01084 | 17.63691 | 4892 ft | 261 kts | 131° |
| 2026-05-01 07:32 | 47.98588 | 17.67339 | 4646 ft | 245 kts | 142° |
| 2026-05-01 07:32 | 47.97009 | 17.68148 | 4502 ft | 242 kts | 177° |
| 2026-05-01 07:33 | 47.94130 | 17.65846 | 4271 ft | 244 kts | 225° |
| 2026-05-01 07:33 | 47.92944 | 17.64015 | 4118 ft | 245 kts | 233° |
| 2026-05-01 07:33 | 47.92591 | 17.59369 | 3864 ft | 235 kts | 297° |
| 2026-05-01 07:34 | 47.93540 | 17.57384 | 3672 ft | 237 kts | 315° |
| 2026-05-01 07:34 | 47.95853 | 17.53880 | 3355 ft | 235 kts | 316° |
| 2026-05-01 07:34 | 47.96975 | 17.52156 | 3260 ft | 227 kts | 316° |
| 2026-05-01 07:35 | 47.98069 | 17.50487 | 3191 ft | 223 kts | 316° |
| 2026-05-01 07:35 | 47.99149 | 17.48852 | 3100 ft | 215 kts | 317° |
| 2026-05-01 07:35 | 48.00153 | 17.47281 | 3015 ft | 204 kts | 316° |
| 2026-05-01 07:35 | 48.01106 | 17.45811 | 3006 ft | 199 kts | 317° |
| 2026-05-01 07:36 | 48.02093 | 17.44308 | 3017 ft | 203 kts | 317° |
| 2026-05-01 07:36 | 48.03077 | 17.42784 | 3026 ft | 204 kts | 316° |
| 2026-05-01 07:36 | 48.04052 | 17.41287 | 3020 ft | 203 kts | 317° |
| 2026-05-01 07:36 | 48.05043 | 17.39768 | 3019 ft | 205 kts | 316° |
| 2026-05-01 07:37 | 48.06984 | 17.36777 | 2964 ft | 191 kts | 317° |
| 2026-05-01 07:37 | 48.07895 | 17.35364 | 2725 ft | 183 kts | 317° |
| 2026-05-01 07:37 | 48.08749 | 17.34040 | 2494 ft | 176 kts | 317° |
| 2026-05-01 07:38 | 48.09591 | 17.32752 | 2292 ft | 169 kts | 317° |
| 2026-05-01 07:38 | 48.10397 | 17.31512 | 2050 ft | 161 kts | 316° |
| 2026-05-01 07:38 | 48.11806 | 17.29326 | 1613 ft | 135 kts | 316° |
| 2026-05-01 07:39 | 48.12442 | 17.28335 | 1437 ft | 129 kts | 317° |
| 2026-05-01 07:39 | 48.13067 | 17.27375 | 1264 ft | 128 kts | 316° |
| 2026-05-01 07:39 | 48.14338 | 17.25408 | 906 ft | 136 kts | 316° |
| 2026-05-01 07:40 | 48.15002 | 17.24375 | 694 ft | 136 kts | 315° |
| 2026-05-01 07:40 | 48.15647 | 17.23371 | 503 ft | 130 kts | 315° |
| 2026-05-01 07:40 | 48.16241 | 17.22459 | 424 ft | 111 kts | 315° |
| 2026-05-01 07:40 | 48.16663 | 17.21806 | 422 ft | 62 kts | 314° |
| 2026-05-01 07:41 | 48.16846 | 17.21522 | 424 ft | 15 kts | 314° |
| 2026-05-01 07:41 | 48.16932 | 17.21387 | 424 ft | 23 kts | 314° |
| 2026-05-01 07:41 | 48.17129 | 17.21032 | 420 ft | 15 kts | 260° |
| 2026-05-01 07:42 | 48.17060 | 17.20908 | 424 ft | 16 kts | 226° |
| 2026-05-01 07:42 | 48.16981 | 17.20785 | 429 ft | 17 kts | 226° |
| 2026-05-01 07:42 | 48.16900 | 17.20661 | 424 ft | 17 kts | 225° |
| 2026-05-01 07:42 | 48.16813 | 17.20534 | 429 ft | 18 kts | 225° |
| 2026-05-01 07:43 | 48.16732 | 17.20411 | 432 ft | 13 kts | 226° |
| 2026-05-01 07:43 | 48.16735 | 17.20318 | 427 ft | 11 kts | 310° |
| 2026-05-01 07:43 | 48.16852 | 17.20143 | 433 ft | 7 kts | 331° |
| 2026-05-01 07:44 | 48.16911 | 17.20151 | 432 ft | 6 kts | 321° |
| 2026-05-01 07:44 | 48.16940 | 17.20108 | 433 ft | 1 kts | 314° |